This is the latest recevied weather packets stored in our database for station/object F1ZFG-13. If no packets are shown the sender has not sent any weather packets the latest 10 day(s).
| Time | Temp. | Humidity | Pressure | Rain* | Wind** | Luminosity | Snow |
|---|---|---|---|---|---|---|---|
| 1787921288 | 25.56° C | 47% | 1014 hPa | 0 mm | - | - | - |
| 1787917869 | 23.89° C | 66% | 1014.7 hPa | 0 mm | - | - | - |
| 1787914641 | 21.67° C | 74% | 1015.1 hPa | 0 mm | - | - | - |
| 1787911149 | 20° C | 82% | 1014.9 hPa | 0 mm | - | - | - |
| 1787908213 | 20° C | 82% | 1014.9 hPa | 0 mm | - | - | - |
| 1787905284 | 20.56° C | 85% | 1014.7 hPa | 0 mm | - | - | - |
| 1787901815 | 18.89° C | 94% | 1013.7 hPa | 0 mm | - | - | - |
| 1787898301 | 18.89° C | 95% | 1013.3 hPa | 0 mm | - | - | - |
| 1787894860 | 18.33° C | 94% | 1011.6 hPa | 1.02 mm | - | - | - |
| 1787891764 | 18.33° C | 95% | 1011.6 hPa | 0.51 mm | - | - | - |
| 1787888876 | 18.89° C | 92% | 1011.8 hPa | 1.27 mm | - | - | - |
| 1787885849 | 20° C | 89% | 1011.3 hPa | 2.03 mm | - | - | - |
| 1787882694 | 20° C | 89% | 1011.3 hPa | 2.03 mm | - | - | - |
| 1787879598 | 21.11° C | 79% | 1011.9 hPa | 0.25 mm | - | - | - |
| 1787876679 | 22.78° C | 73% | 1011.2 hPa | 0 mm | - | - | - |
| 1787873177 | 24.44° C | 66% | 1011.1 hPa | 0 mm | - | - | - |
| 1787869829 | 25.56° C | 61% | 1010.3 hPa | 0 mm | - | - | - |
| 1787866379 | 26.11° C | 59% | 1009.8 hPa | 0 mm | - | - | - |
| 1787863508 | 27.22° C | 51% | 1009.1 hPa | 0 mm | - | - | - |
| 1787860532 | 27.78° C | 47% | 1008.5 hPa | 0 mm | - | - | - |
| 1787857224 | 28.33° C | 43% | 1008.4 hPa | 0 mm | - | - | - |
| 1787853913 | 29.44° C | 37% | 1008.1 hPa | 0 mm | - | - | - |
| 1787850325 | 30.56° C | 39% | 1008.3 hPa | 0 mm | - | - | - |
| 1787847244 | 31.67° C | 38% | 1008.2 hPa | 0 mm | - | - | - |
| 1787843845 | 31.11° C | 42% | 1008.5 hPa | 0 mm | - | - | - |
* Rain latest hour (hover to see other rain measurements)
** Current wind speed in m/s (hover to see current wind gust speed)